sensor_id;sensor_type;location;lat;lon;timestamp;P1;durP1;ratioP1;P2;durP2;ratioP2
69970;SDS011;57301;50.328;8.542;2023-06-14T00:02:10;8.82;;;6.55;;
69970;SDS011;57301;50.328;8.542;2023-06-14T00:04:37;11.20;;;7.22;;
69970;SDS011;57301;50.328;8.542;2023-06-14T00:07:05;10.43;;;6.53;;
69970;SDS011;57301;50.328;8.542;2023-06-14T00:09:34;9.68;;;6.75;;
69970;SDS011;57301;50.328;8.542;2023-06-14T00:12:01;12.18;;;7.78;;
69970;SDS011;57301;50.328;8.542;2023-06-14T00:14:28;15.48;;;8.65;;
69970;SDS011;57301;50.328;8.542;2023-06-14T00:16:54;12.40;;;8.20;;
69970;SDS011;57301;50.328;8.542;2023-06-14T00:19:26;9.87;;;7.70;;
69970;SDS011;57301;50.328;8.542;2023-06-14T00:21:52;9.15;;;7.30;;
69970;SDS011;57301;50.328;8.542;2023-06-14T00:24:19;9.48;;;7.00;;
69970;SDS011;57301;50.328;8.542;2023-06-14T00:26:46;9.70;;;7.30;;
69970;SDS011;57301;50.328;8.542;2023-06-14T00:29:13;10.18;;;7.28;;
69970;SDS011;57301;50.328;8.542;2023-06-14T00:31:39;8.93;;;7.33;;
69970;SDS011;57301;50.328;8.542;2023-06-14T00:34:06;8.70;;;7.38;;
69970;SDS011;57301;50.328;8.542;2023-06-14T00:36:32;11.15;;;7.22;;
69970;SDS011;57301;50.328;8.542;2023-06-14T00:38:59;13.23;;;7.32;;
69970;SDS011;57301;50.328;8.542;2023-06-14T00:41:25;9.52;;;7.38;;
69970;SDS011;57301;50.328;8.542;2023-06-14T00:43:53;8.47;;;7.27;;
69970;SDS011;57301;50.328;8.542;2023-06-14T00:46:22;8.52;;;7.20;;
69970;SDS011;57301;50.328;8.542;2023-06-14T00:48:49;9.63;;;7.13;;
69970;SDS011;57301;50.328;8.542;2023-06-14T00:51:16;12.07;;;8.05;;
69970;SDS011;57301;50.328;8.542;2023-06-14T00:53:43;10.57;;;7.93;;
69970;SDS011;57301;50.328;8.542;2023-06-14T00:56:16;9.43;;;7.77;;
69970;SDS011;57301;50.328;8.542;2023-06-14T00:58:42;9.73;;;7.50;;
69970;SDS011;57301;50.328;8.542;2023-06-14T01:01:09;9.15;;;7.43;;
69970;SDS011;57301;50.328;8.542;2023-06-14T01:03:36;11.05;;;7.95;;
69970;SDS011;57301;50.328;8.542;2023-06-14T01:06:15;13.15;;;8.00;;
69970;SDS011;57301;50.328;8.542;2023-06-14T01:11:58;10.52;;;7.40;;
69970;SDS011;57301;50.328;8.542;2023-06-14T01:14:30;9.80;;;8.23;;
69970;SDS011;57301;50.328;8.542;2023-06-14T01:16:58;11.15;;;8.18;;
69970;SDS011;57301;50.328;8.542;2023-06-14T01:19:26;12.52;;;8.10;;
69970;SDS011;57301;50.328;8.542;2023-06-14T01:21:57;8.83;;;7.10;;
69970;SDS011;57301;50.328;8.542;2023-06-14T01:24:27;9.88;;;7.93;;
69970;SDS011;57301;50.328;8.542;2023-06-14T01:26:58;9.80;;;7.72;;
69970;SDS011;57301;50.328;8.542;2023-06-14T01:29:26;9.82;;;7.25;;
69970;SDS011;57301;50.328;8.542;2023-06-14T01:31:54;11.43;;;8.13;;
69970;SDS011;57301;50.328;8.542;2023-06-14T01:34:20;10.93;;;8.13;;
69970;SDS011;57301;50.328;8.542;2023-06-14T01:36:47;10.82;;;7.90;;
69970;SDS011;57301;50.328;8.542;2023-06-14T01:39:16;9.55;;;7.78;;
69970;SDS011;57301;50.328;8.542;2023-06-14T01:41:43;11.02;;;7.75;;
69970;SDS011;57301;50.328;8.542;2023-06-14T01:44:12;9.40;;;7.65;;
69970;SDS011;57301;50.328;8.542;2023-06-14T01:46:40;10.63;;;8.17;;
69970;SDS011;57301;50.328;8.542;2023-06-14T01:49:07;11.80;;;8.68;;
69970;SDS011;57301;50.328;8.542;2023-06-14T01:51:34;12.73;;;9.10;;
69970;SDS011;57301;50.328;8.542;2023-06-14T01:54:03;10.60;;;8.50;;
69970;SDS011;57301;50.328;8.542;2023-06-14T01:56:30;13.55;;;10.27;;
69970;SDS011;57301;50.328;8.542;2023-06-14T01:58:56;10.77;;;8.30;;
69970;SDS011;57301;50.328;8.542;2023-06-14T02:01:23;15.73;;;11.43;;
69970;SDS011;57301;50.328;8.542;2023-06-14T02:03:50;12.10;;;8.65;;
69970;SDS011;57301;50.328;8.542;2023-06-14T02:06:17;11.00;;;8.57;;
69970;SDS011;57301;50.328;8.542;2023-06-14T02:08:44;10.50;;;8.48;;
69970;SDS011;57301;50.328;8.542;2023-06-14T02:11:11;12.90;;;8.63;;
69970;SDS011;57301;50.328;8.542;2023-06-14T02:13:40;12.90;;;7.80;;
69970;SDS011;57301;50.328;8.542;2023-06-14T02:16:06;10.65;;;8.35;;
69970;SDS011;57301;50.328;8.542;2023-06-14T02:18:33;9.98;;;8.23;;
69970;SDS011;57301;50.328;8.542;2023-06-14T02:21:00;11.07;;;8.27;;
69970;SDS011;57301;50.328;8.542;2023-06-14T02:23:27;10.53;;;8.27;;
69970;SDS011;57301;50.328;8.542;2023-06-14T02:25:53;10.18;;;8.05;;
69970;SDS011;57301;50.328;8.542;2023-06-14T02:28:20;11.70;;;8.70;;
69970;SDS011;57301;50.328;8.542;2023-06-14T02:30:47;11.45;;;8.85;;
69970;SDS011;57301;50.328;8.542;2023-06-14T02:33:13;9.93;;;8.40;;
69970;SDS011;57301;50.328;8.542;2023-06-14T02:35:40;11.33;;;8.30;;
69970;SDS011;57301;50.328;8.542;2023-06-14T02:38:07;11.30;;;8.02;;
69970;SDS011;57301;50.328;8.542;2023-06-14T02:40:33;11.85;;;9.15;;
69970;SDS011;57301;50.328;8.542;2023-06-14T02:43:00;11.80;;;8.52;;
69970;SDS011;57301;50.328;8.542;2023-06-14T02:45:28;10.90;;;8.45;;
69970;SDS011;57301;50.328;8.542;2023-06-14T02:47:54;10.77;;;8.10;;
69970;SDS011;57301;50.328;8.542;2023-06-14T02:50:22;13.52;;;9.77;;
69970;SDS011;57301;50.328;8.542;2023-06-14T02:52:50;14.38;;;10.23;;
69970;SDS011;57301;50.328;8.542;2023-06-14T02:55:16;11.55;;;8.70;;
69970;SDS011;57301;50.328;8.542;2023-06-14T02:57:43;12.27;;;8.63;;
69970;SDS011;57301;50.328;8.542;2023-06-14T03:00:10;12.83;;;8.43;;
69970;SDS011;57301;50.328;8.542;2023-06-14T03:02:40;10.15;;;8.48;;
69970;SDS011;57301;50.328;8.542;2023-06-14T03:05:08;11.55;;;8.45;;
69970;SDS011;57301;50.328;8.542;2023-06-14T03:07:36;9.85;;;7.72;;
69970;SDS011;57301;50.328;8.542;2023-06-14T03:10:09;12.00;;;9.05;;
69970;SDS011;57301;50.328;8.542;2023-06-14T03:12:36;12.07;;;8.80;;
69970;SDS011;57301;50.328;8.542;2023-06-14T03:15:03;12.25;;;8.82;;
69970;SDS011;57301;50.328;8.542;2023-06-14T03:17:30;11.82;;;9.20;;
69970;SDS011;57301;50.328;8.542;2023-06-14T03:19:59;12.98;;;8.90;;
69970;SDS011;57301;50.328;8.542;2023-06-14T03:22:26;10.15;;;8.02;;
69970;SDS011;57301;50.328;8.542;2023-06-14T03:25:02;10.80;;;7.97;;
69970;SDS011;57301;50.328;8.542;2023-06-14T03:27:31;15.20;;;11.00;;
69970;SDS011;57301;50.328;8.542;2023-06-14T03:29:58;13.88;;;10.20;;
69970;SDS011;57301;50.328;8.542;2023-06-14T03:32:24;10.07;;;8.05;;
69970;SDS011;57301;50.328;8.542;2023-06-14T03:34:51;13.38;;;9.15;;
69970;SDS011;57301;50.328;8.542;2023-06-14T03:37:18;15.13;;;8.53;;
69970;SDS011;57301;50.328;8.542;2023-06-14T03:39:45;12.25;;;8.88;;
69970;SDS011;57301;50.328;8.542;2023-06-14T03:42:13;12.57;;;8.90;;
69970;SDS011;57301;50.328;8.542;2023-06-14T03:44:40;13.27;;;9.32;;
69970;SDS011;57301;50.328;8.542;2023-06-14T03:47:07;14.38;;;9.00;;
69970;SDS011;57301;50.328;8.542;2023-06-14T03:49:34;11.20;;;8.50;;
69970;SDS011;57301;50.328;8.542;2023-06-14T03:52:01;11.82;;;8.75;;
69970;SDS011;57301;50.328;8.542;2023-06-14T03:54:31;12.00;;;8.77;;
69970;SDS011;57301;50.328;8.542;2023-06-14T03:57:01;11.25;;;8.98;;
69970;SDS011;57301;50.328;8.542;2023-06-14T03:59:28;10.85;;;8.73;;
69970;SDS011;57301;50.328;8.542;2023-06-14T04:01:54;10.57;;;8.17;;
69970;SDS011;57301;50.328;8.542;2023-06-14T04:04:21;9.93;;;7.82;;
69970;SDS011;57301;50.328;8.542;2023-06-14T04:06:47;10.40;;;8.02;;
69970;SDS011;57301;50.328;8.542;2023-06-14T04:09:14;11.25;;;8.38;;
69970;SDS011;57301;50.328;8.542;2023-06-14T04:11:41;11.32;;;7.90;;
69970;SDS011;57301;50.328;8.542;2023-06-14T04:14:07;10.00;;;7.77;;
69970;SDS011;57301;50.328;8.542;2023-06-14T04:16:34;10.05;;;8.02;;
69970;SDS011;57301;50.328;8.542;2023-06-14T04:19:01;10.25;;;8.18;;
69970;SDS011;57301;50.328;8.542;2023-06-14T04:21:28;11.57;;;8.00;;
69970;SDS011;57301;50.328;8.542;2023-06-14T04:23:55;23.20;;;15.07;;
69970;SDS011;57301;50.328;8.542;2023-06-14T04:26:22;21.30;;;13.47;;
69970;SDS011;57301;50.328;8.542;2023-06-14T04:28:52;14.88;;;9.90;;
69970;SDS011;57301;50.328;8.542;2023-06-14T04:31:19;11.95;;;8.32;;
69970;SDS011;57301;50.328;8.542;2023-06-14T04:33:51;11.35;;;7.50;;
69970;SDS011;57301;50.328;8.542;2023-06-14T04:36:19;12.75;;;8.45;;
69970;SDS011;57301;50.328;8.542;2023-06-14T04:38:46;14.00;;;8.00;;
69970;SDS011;57301;50.328;8.542;2023-06-14T04:41:18;11.80;;;8.18;;
69970;SDS011;57301;50.328;8.542;2023-06-14T04:43:48;10.75;;;7.75;;
69970;SDS011;57301;50.328;8.542;2023-06-14T04:46:15;10.27;;;7.82;;
69970;SDS011;57301;50.328;8.542;2023-06-14T04:48:43;12.80;;;7.82;;
69970;SDS011;57301;50.328;8.542;2023-06-14T04:51:10;11.73;;;8.13;;
69970;SDS011;57301;50.328;8.542;2023-06-14T04:53:36;10.52;;;7.40;;
69970;SDS011;57301;50.328;8.542;2023-06-14T04:56:03;9.80;;;7.90;;
69970;SDS011;57301;50.328;8.542;2023-06-14T04:58:30;12.02;;;8.18;;
69970;SDS011;57301;50.328;8.542;2023-06-14T05:00:58;10.13;;;7.38;;
69970;SDS011;57301;50.328;8.542;2023-06-14T05:03:29;11.73;;;7.60;;
69970;SDS011;57301;50.328;8.542;2023-06-14T05:05:57;10.43;;;7.32;;
69970;SDS011;57301;50.328;8.542;2023-06-14T05:08:23;10.85;;;7.18;;
69970;SDS011;57301;50.328;8.542;2023-06-14T05:10:50;11.88;;;7.82;;
69970;SDS011;57301;50.328;8.542;2023-06-14T05:13:17;10.82;;;7.25;;
69970;SDS011;57301;50.328;8.542;2023-06-14T05:15:44;9.70;;;6.77;;
69970;SDS011;57301;50.328;8.542;2023-06-14T05:18:11;11.30;;;7.30;;
69970;SDS011;57301;50.328;8.542;2023-06-14T05:20:39;10.55;;;7.63;;
69970;SDS011;57301;50.328;8.542;2023-06-14T05:23:08;12.45;;;8.38;;
69970;SDS011;57301;50.328;8.542;2023-06-14T05:25:42;10.68;;;7.40;;
69970;SDS011;57301;50.328;8.542;2023-06-14T05:28:10;9.07;;;7.00;;
69970;SDS011;57301;50.328;8.542;2023-06-14T05:30:37;8.50;;;6.22;;
69970;SDS011;57301;50.328;8.542;2023-06-14T05:33:05;9.02;;;6.32;;
69970;SDS011;57301;50.328;8.542;2023-06-14T05:35:32;16.10;;;7.00;;
69970;SDS011;57301;50.328;8.542;2023-06-14T05:37:58;9.95;;;6.72;;
69970;SDS011;57301;50.328;8.542;2023-06-14T05:40:25;8.87;;;6.10;;
69970;SDS011;57301;50.328;8.542;2023-06-14T05:42:51;8.57;;;5.60;;
69970;SDS011;57301;50.328;8.542;2023-06-14T05:45:21;8.27;;;5.50;;
69970;SDS011;57301;50.328;8.542;2023-06-14T05:47:47;9.52;;;5.15;;
69970;SDS011;57301;50.328;8.542;2023-06-14T05:50:14;8.90;;;5.10;;
69970;SDS011;57301;50.328;8.542;2023-06-14T05:52:40;24.30;;;16.47;;
69970;SDS011;57301;50.328;8.542;2023-06-14T05:55:07;9.55;;;5.45;;
69970;SDS011;57301;50.328;8.542;2023-06-14T05:57:34;10.15;;;5.22;;
69970;SDS011;57301;50.328;8.542;2023-06-14T06:00:01;11.68;;;4.90;;
69970;SDS011;57301;50.328;8.542;2023-06-14T06:02:36;8.45;;;4.88;;
69970;SDS011;57301;50.328;8.542;2023-06-14T06:05:03;6.97;;;4.37;;
69970;SDS011;57301;50.328;8.542;2023-06-14T06:07:29;8.10;;;5.35;;
69970;SDS011;57301;50.328;8.542;2023-06-14T06:09:56;12.48;;;6.32;;
69970;SDS011;57301;50.328;8.542;2023-06-14T06:12:22;7.78;;;4.82;;
69970;SDS011;57301;50.328;8.542;2023-06-14T06:14:49;12.65;;;5.70;;
69970;SDS011;57301;50.328;8.542;2023-06-14T06:17:15;8.83;;;4.43;;
69970;SDS011;57301;50.328;8.542;2023-06-14T06:19:42;10.38;;;5.35;;
69970;SDS011;57301;50.328;8.542;2023-06-14T06:22:08;7.38;;;4.40;;
69970;SDS011;57301;50.328;8.542;2023-06-14T06:24:35;7.97;;;4.30;;
69970;SDS011;57301;50.328;8.542;2023-06-14T06:27:02;6.68;;;3.78;;
69970;SDS011;57301;50.328;8.542;2023-06-14T06:29:31;4.53;;;3.60;;
69970;SDS011;57301;50.328;8.542;2023-06-14T06:31:58;8.25;;;4.72;;
69970;SDS011;57301;50.328;8.542;2023-06-14T06:34:25;5.47;;;4.07;;
69970;SDS011;57301;50.328;8.542;2023-06-14T06:36:51;10.00;;;4.47;;
69970;SDS011;57301;50.328;8.542;2023-06-14T06:39:18;8.68;;;4.47;;
69970;SDS011;57301;50.328;8.542;2023-06-14T06:41:45;5.63;;;4.10;;
69970;SDS011;57301;50.328;8.542;2023-06-14T06:44:11;6.47;;;3.70;;
69970;SDS011;57301;50.328;8.542;2023-06-14T06:46:39;8.70;;;5.60;;
69970;SDS011;57301;50.328;8.542;2023-06-14T06:49:07;6.85;;;5.38;;
69970;SDS011;57301;50.328;8.542;2023-06-14T06:51:34;6.15;;;4.25;;
69970;SDS011;57301;50.328;8.542;2023-06-14T06:54:03;6.60;;;3.90;;
69970;SDS011;57301;50.328;8.542;2023-06-14T06:56:29;9.65;;;4.20;;
69970;SDS011;57301;50.328;8.542;2023-06-14T06:58:57;7.35;;;4.07;;
69970;SDS011;57301;50.328;8.542;2023-06-14T07:01:24;7.88;;;4.18;;
69970;SDS011;57301;50.328;8.542;2023-06-14T07:03:50;11.40;;;7.00;;
69970;SDS011;57301;50.328;8.542;2023-06-14T07:06:17;7.07;;;3.83;;
69970;SDS011;57301;50.328;8.542;2023-06-14T07:08:45;7.15;;;4.20;;
69970;SDS011;57301;50.328;8.542;2023-06-14T07:11:14;5.13;;;3.70;;
69970;SDS011;57301;50.328;8.542;2023-06-14T07:13:41;7.07;;;4.20;;
69970;SDS011;57301;50.328;8.542;2023-06-14T07:16:07;5.97;;;3.78;;
69970;SDS011;57301;50.328;8.542;2023-06-14T07:18:34;5.20;;;3.47;;
69970;SDS011;57301;50.328;8.542;2023-06-14T07:21:01;5.47;;;3.80;;
69970;SDS011;57301;50.328;8.542;2023-06-14T07:23:28;7.70;;;3.42;;
69970;SDS011;57301;50.328;8.542;2023-06-14T07:25:55;4.63;;;3.13;;
69970;SDS011;57301;50.328;8.542;2023-06-14T07:28:21;7.45;;;3.60;;
69970;SDS011;57301;50.328;8.542;2023-06-14T07:30:48;4.20;;;2.70;;
69970;SDS011;57301;50.328;8.542;2023-06-14T07:33:15;4.15;;;3.00;;
69970;SDS011;57301;50.328;8.542;2023-06-14T07:35:41;5.45;;;3.28;;
69970;SDS011;57301;50.328;8.542;2023-06-14T07:38:08;5.95;;;2.95;;
69970;SDS011;57301;50.328;8.542;2023-06-14T07:40:35;5.40;;;2.78;;
69970;SDS011;57301;50.328;8.542;2023-06-14T07:43:02;7.97;;;3.07;;
69970;SDS011;57301;50.328;8.542;2023-06-14T07:45:29;5.72;;;2.88;;
69970;SDS011;57301;50.328;8.542;2023-06-14T07:47:56;8.52;;;3.08;;
69970;SDS011;57301;50.328;8.542;2023-06-14T07:50:23;6.00;;;3.03;;
69970;SDS011;57301;50.328;8.542;2023-06-14T07:52:50;5.43;;;3.00;;
69970;SDS011;57301;50.328;8.542;2023-06-14T07:55:16;6.40;;;3.03;;
69970;SDS011;57301;50.328;8.542;2023-06-14T07:57:44;3.67;;;3.03;;
69970;SDS011;57301;50.328;8.542;2023-06-14T08:00:10;4.32;;;2.90;;
69970;SDS011;57301;50.328;8.542;2023-06-14T08:02:41;4.88;;;3.42;;
69970;SDS011;57301;50.328;8.542;2023-06-14T08:05:12;3.83;;;2.90;;
69970;SDS011;57301;50.328;8.542;2023-06-14T08:07:39;5.20;;;2.83;;
69970;SDS011;57301;50.328;8.542;2023-06-14T08:10:07;4.93;;;2.50;;
69970;SDS011;57301;50.328;8.542;2023-06-14T08:12:33;3.90;;;2.60;;
69970;SDS011;57301;50.328;8.542;2023-06-14T08:15:01;5.00;;;2.67;;
69970;SDS011;57301;50.328;8.542;2023-06-14T08:17:34;6.00;;;3.10;;
69970;SDS011;57301;50.328;8.542;2023-06-14T08:20:01;5.07;;;2.50;;
69970;SDS011;57301;50.328;8.542;2023-06-14T08:22:30;3.40;;;2.38;;
69970;SDS011;57301;50.328;8.542;2023-06-14T08:25:00;4.05;;;2.35;;
69970;SDS011;57301;50.328;8.542;2023-06-14T08:27:27;3.60;;;2.17;;
69970;SDS011;57301;50.328;8.542;2023-06-14T08:29:56;3.85;;;2.53;;
69970;SDS011;57301;50.328;8.542;2023-06-14T08:32:24;4.30;;;2.70;;
69970;SDS011;57301;50.328;8.542;2023-06-14T08:34:50;4.55;;;3.10;;
69970;SDS011;57301;50.328;8.542;2023-06-14T08:37:30;5.57;;;3.00;;
69970;SDS011;57301;50.328;8.542;2023-06-14T08:39:57;5.78;;;3.20;;
69970;SDS011;57301;50.328;8.542;2023-06-14T08:42:24;4.15;;;2.92;;
69970;SDS011;57301;50.328;8.542;2023-06-14T08:44:57;4.53;;;3.00;;
69970;SDS011;57301;50.328;8.542;2023-06-14T08:47:25;5.80;;;2.80;;
69970;SDS011;57301;50.328;8.542;2023-06-14T08:49:55;4.60;;;2.60;;
69970;SDS011;57301;50.328;8.542;2023-06-14T08:52:24;5.03;;;2.60;;
69970;SDS011;57301;50.328;8.542;2023-06-14T08:54:59;6.28;;;2.53;;
69970;SDS011;57301;50.328;8.542;2023-06-14T08:57:28;4.00;;;2.87;;
69970;SDS011;57301;50.328;8.542;2023-06-14T08:59:56;5.07;;;3.30;;
69970;SDS011;57301;50.328;8.542;2023-06-14T09:02:23;5.65;;;2.80;;
69970;SDS011;57301;50.328;8.542;2023-06-14T09:04:51;7.05;;;2.60;;
69970;SDS011;57301;50.328;8.542;2023-06-14T09:07:18;4.53;;;2.53;;
69970;SDS011;57301;50.328;8.542;2023-06-14T09:09:44;3.57;;;2.40;;
69970;SDS011;57301;50.328;8.542;2023-06-14T09:12:31;3.85;;;2.72;;
69970;SDS011;57301;50.328;8.542;2023-06-14T09:14:59;6.43;;;2.53;;
69970;SDS011;57301;50.328;8.542;2023-06-14T09:17:26;5.10;;;2.70;;
69970;SDS011;57301;50.328;8.542;2023-06-14T09:19:54;4.00;;;2.72;;
69970;SDS011;57301;50.328;8.542;2023-06-14T09:22:22;9.20;;;2.80;;
69970;SDS011;57301;50.328;8.542;2023-06-14T09:24:48;6.47;;;2.70;;
69970;SDS011;57301;50.328;8.542;2023-06-14T09:27:15;3.83;;;2.70;;
69970;SDS011;57301;50.328;8.542;2023-06-14T09:29:42;5.07;;;2.78;;
69970;SDS011;57301;50.328;8.542;2023-06-14T09:32:08;4.07;;;2.88;;
69970;SDS011;57301;50.328;8.542;2023-06-14T09:34:35;5.63;;;3.00;;
69970;SDS011;57301;50.328;8.542;2023-06-14T09:37:02;5.03;;;3.08;;
69970;SDS011;57301;50.328;8.542;2023-06-14T09:39:29;4.68;;;3.10;;
69970;SDS011;57301;50.328;8.542;2023-06-14T09:41:56;4.90;;;3.03;;
69970;SDS011;57301;50.328;8.542;2023-06-14T09:44:22;6.07;;;3.00;;
69970;SDS011;57301;50.328;8.542;2023-06-14T09:46:55;4.17;;;2.87;;
69970;SDS011;57301;50.328;8.542;2023-06-14T09:49:22;4.70;;;3.00;;
69970;SDS011;57301;50.328;8.542;2023-06-14T09:51:50;4.65;;;2.90;;
69970;SDS011;57301;50.328;8.542;2023-06-14T09:54:20;4.75;;;3.08;;
69970;SDS011;57301;50.328;8.542;2023-06-14T09:56:48;11.30;;;3.40;;
69970;SDS011;57301;50.328;8.542;2023-06-14T09:59:21;4.90;;;3.10;;
69970;SDS011;57301;50.328;8.542;2023-06-14T10:01:56;3.80;;;2.80;;
69970;SDS011;57301;50.328;8.542;2023-06-14T10:04:26;4.78;;;3.05;;
69970;SDS011;57301;50.328;8.542;2023-06-14T10:06:55;4.93;;;2.65;;
69970;SDS011;57301;50.328;8.542;2023-06-14T10:09:23;3.70;;;2.88;;
69970;SDS011;57301;50.328;8.542;2023-06-14T10:11:49;5.03;;;2.73;;
69970;SDS011;57301;50.328;8.542;2023-06-14T10:14:16;5.47;;;2.95;;
69970;SDS011;57301;50.328;8.542;2023-06-14T10:19:32;5.53;;;3.13;;
69970;SDS011;57301;50.328;8.542;2023-06-14T10:22:08;4.00;;;2.72;;
69970;SDS011;57301;50.328;8.542;2023-06-14T10:24:41;4.57;;;3.07;;
69970;SDS011;57301;50.328;8.542;2023-06-14T10:27:09;5.88;;;2.90;;
69970;SDS011;57301;50.328;8.542;2023-06-14T10:32:22;3.72;;;2.83;;
69970;SDS011;57301;50.328;8.542;2023-06-14T10:34:56;4.10;;;2.75;;
69970;SDS011;57301;50.328;8.542;2023-06-14T10:37:27;4.70;;;2.60;;
69970;SDS011;57301;50.328;8.542;2023-06-14T10:39:53;4.65;;;2.90;;
69970;SDS011;57301;50.328;8.542;2023-06-14T10:42:20;5.05;;;2.80;;
69970;SDS011;57301;50.328;8.542;2023-06-14T10:44:49;4.60;;;3.03;;
69970;SDS011;57301;50.328;8.542;2023-06-14T10:47:22;6.00;;;2.72;;
69970;SDS011;57301;50.328;8.542;2023-06-14T10:49:50;4.63;;;3.10;;
69970;SDS011;57301;50.328;8.542;2023-06-14T10:52:23;5.10;;;3.10;;
69970;SDS011;57301;50.328;8.542;2023-06-14T11:00:28;5.80;;;3.65;;
69970;SDS011;57301;50.328;8.542;2023-06-14T11:05:41;5.13;;;2.80;;
69970;SDS011;57301;50.328;8.542;2023-06-14T11:11:05;3.75;;;2.50;;
69970;SDS011;57301;50.328;8.542;2023-06-14T11:13:33;4.43;;;2.80;;
69970;SDS011;57301;50.328;8.542;2023-06-14T11:16:03;4.27;;;2.67;;
69970;SDS011;57301;50.328;8.542;2023-06-14T11:18:36;4.00;;;2.80;;
69970;SDS011;57301;50.328;8.542;2023-06-14T11:21:03;4.63;;;3.15;;
69970;SDS011;57301;50.328;8.542;2023-06-14T11:23:29;5.93;;;3.10;;
69970;SDS011;57301;50.328;8.542;2023-06-14T11:25:56;5.55;;;3.15;;
69970;SDS011;57301;50.328;8.542;2023-06-14T11:28:32;5.77;;;2.93;;
69970;SDS011;57301;50.328;8.542;2023-06-14T11:31:03;4.75;;;2.88;;
69970;SDS011;57301;50.328;8.542;2023-06-14T11:33:30;4.93;;;2.80;;
69970;SDS011;57301;50.328;8.542;2023-06-14T11:35:56;4.18;;;3.00;;
69970;SDS011;57301;50.328;8.542;2023-06-14T11:38:24;3.60;;;2.85;;
69970;SDS011;57301;50.328;8.542;2023-06-14T11:40:52;3.80;;;2.70;;
69970;SDS011;57301;50.328;8.542;2023-06-14T11:43:19;4.03;;;2.78;;
69970;SDS011;57301;50.328;8.542;2023-06-14T11:45:47;3.67;;;2.83;;
69970;SDS011;57301;50.328;8.542;2023-06-14T11:48:36;4.20;;;2.90;;
69970;SDS011;57301;50.328;8.542;2023-06-14T11:51:04;4.63;;;3.03;;
69970;SDS011;57301;50.328;8.542;2023-06-14T11:53:31;5.13;;;3.40;;
69970;SDS011;57301;50.328;8.542;2023-06-14T11:55:58;4.78;;;2.92;;
69970;SDS011;57301;50.328;8.542;2023-06-14T11:58:25;4.97;;;3.03;;
69970;SDS011;57301;50.328;8.542;2023-06-14T12:00:52;4.55;;;3.00;;
69970;SDS011;57301;50.328;8.542;2023-06-14T12:03:22;5.60;;;3.08;;
69970;SDS011;57301;50.328;8.542;2023-06-14T12:06:01;5.37;;;3.07;;
69970;SDS011;57301;50.328;8.542;2023-06-14T12:08:36;5.03;;;2.70;;
69970;SDS011;57301;50.328;8.542;2023-06-14T12:11:15;6.00;;;3.30;;
69970;SDS011;57301;50.328;8.542;2023-06-14T12:13:43;4.57;;;2.75;;
69970;SDS011;57301;50.328;8.542;2023-06-14T12:16:10;6.80;;;2.95;;
69970;SDS011;57301;50.328;8.542;2023-06-14T12:18:38;3.80;;;2.80;;
69970;SDS011;57301;50.328;8.542;2023-06-14T12:21:07;5.40;;;2.65;;
69970;SDS011;57301;50.328;8.542;2023-06-14T12:23:46;4.63;;;2.90;;
69970;SDS011;57301;50.328;8.542;2023-06-14T12:26:17;3.80;;;2.83;;
69970;SDS011;57301;50.328;8.542;2023-06-14T12:28:45;6.05;;;3.13;;
69970;SDS011;57301;50.328;8.542;2023-06-14T12:31:14;11.67;;;7.53;;
69970;SDS011;57301;50.328;8.542;2023-06-14T12:33:42;8.30;;;4.18;;
69970;SDS011;57301;50.328;8.542;2023-06-14T12:36:09;5.32;;;2.90;;
69970;SDS011;57301;50.328;8.542;2023-06-14T12:38:37;4.85;;;2.95;;
69970;SDS011;57301;50.328;8.542;2023-06-14T12:41:04;5.50;;;3.47;;
69970;SDS011;57301;50.328;8.542;2023-06-14T12:43:31;6.33;;;3.40;;
69970;SDS011;57301;50.328;8.542;2023-06-14T12:45:58;5.57;;;3.00;;
69970;SDS011;57301;50.328;8.542;2023-06-14T12:48:25;4.20;;;3.05;;
69970;SDS011;57301;50.328;8.542;2023-06-14T12:50:57;5.35;;;3.03;;
69970;SDS011;57301;50.328;8.542;2023-06-14T12:53:24;5.65;;;3.00;;
69970;SDS011;57301;50.328;8.542;2023-06-14T12:55:51;4.53;;;3.03;;
69970;SDS011;57301;50.328;8.542;2023-06-14T13:01:15;4.38;;;2.80;;
69970;SDS011;57301;50.328;8.542;2023-06-14T13:03:41;6.35;;;3.00;;
69970;SDS011;57301;50.328;8.542;2023-06-14T13:06:08;5.43;;;2.75;;
69970;SDS011;57301;50.328;8.542;2023-06-14T13:08:34;5.23;;;3.93;;
69970;SDS011;57301;50.328;8.542;2023-06-14T13:11:01;5.15;;;3.78;;
69970;SDS011;57301;50.328;8.542;2023-06-14T13:13:28;4.47;;;3.00;;
69970;SDS011;57301;50.328;8.542;2023-06-14T13:15:54;5.32;;;3.00;;
69970;SDS011;57301;50.328;8.542;2023-06-14T13:18:21;4.32;;;3.13;;
69970;SDS011;57301;50.328;8.542;2023-06-14T13:20:47;7.43;;;3.40;;
69970;SDS011;57301;50.328;8.542;2023-06-14T13:23:15;5.07;;;3.10;;
69970;SDS011;57301;50.328;8.542;2023-06-14T13:25:42;4.88;;;2.90;;
69970;SDS011;57301;50.328;8.542;2023-06-14T13:28:09;4.63;;;3.15;;
69970;SDS011;57301;50.328;8.542;2023-06-14T13:30:36;5.45;;;3.38;;
69970;SDS011;57301;50.328;8.542;2023-06-14T13:33:03;6.30;;;3.20;;
69970;SDS011;57301;50.328;8.542;2023-06-14T13:35:30;4.63;;;2.97;;
69970;SDS011;57301;50.328;8.542;2023-06-14T13:37:56;6.50;;;3.25;;
69970;SDS011;57301;50.328;8.542;2023-06-14T13:40:23;6.38;;;3.40;;
69970;SDS011;57301;50.328;8.542;2023-06-14T13:42:49;4.82;;;2.83;;
69970;SDS011;57301;50.328;8.542;2023-06-14T13:45:16;3.93;;;2.77;;
69970;SDS011;57301;50.328;8.542;2023-06-14T13:47:43;6.10;;;3.13;;
69970;SDS011;57301;50.328;8.542;2023-06-14T13:50:09;4.40;;;3.00;;
69970;SDS011;57301;50.328;8.542;2023-06-14T13:52:36;5.85;;;3.17;;
69970;SDS011;57301;50.328;8.542;2023-06-14T13:55:03;4.82;;;2.80;;
69970;SDS011;57301;50.328;8.542;2023-06-14T13:57:29;4.20;;;2.57;;
69970;SDS011;57301;50.328;8.542;2023-06-14T14:00:00;4.20;;;2.97;;
69970;SDS011;57301;50.328;8.542;2023-06-14T14:02:29;27.05;;;9.48;;
69970;SDS011;57301;50.328;8.542;2023-06-14T14:04:56;6.20;;;3.30;;
69970;SDS011;57301;50.328;8.542;2023-06-14T14:07:23;4.43;;;2.75;;
69970;SDS011;57301;50.328;8.542;2023-06-14T14:09:50;29.13;;;15.50;;
69970;SDS011;57301;50.328;8.542;2023-06-14T14:12:16;39.08;;;22.83;;
69970;SDS011;57301;50.328;8.542;2023-06-14T14:14:43;5.03;;;3.10;;
69970;SDS011;57301;50.328;8.542;2023-06-14T14:17:10;11.68;;;4.93;;
69970;SDS011;57301;50.328;8.542;2023-06-14T14:19:36;6.35;;;3.67;;
69970;SDS011;57301;50.328;8.542;2023-06-14T14:22:03;5.93;;;3.13;;
69970;SDS011;57301;50.328;8.542;2023-06-14T14:24:30;8.77;;;3.80;;
69970;SDS011;57301;50.328;8.542;2023-06-14T14:26:57;6.95;;;3.80;;
69970;SDS011;57301;50.328;8.542;2023-06-14T14:29:26;8.75;;;4.22;;
69970;SDS011;57301;50.328;8.542;2023-06-14T14:31:55;5.03;;;2.85;;
69970;SDS011;57301;50.328;8.542;2023-06-14T14:34:25;4.90;;;2.90;;
69970;SDS011;57301;50.328;8.542;2023-06-14T14:36:55;3.33;;;2.60;;
69970;SDS011;57301;50.328;8.542;2023-06-14T14:39:22;5.15;;;2.75;;
69970;SDS011;57301;50.328;8.542;2023-06-14T14:41:49;8.48;;;6.53;;
69970;SDS011;57301;50.328;8.542;2023-06-14T14:44:16;30.25;;;21.38;;
69970;SDS011;57301;50.328;8.542;2023-06-14T14:46:43;7.67;;;5.33;;
69970;SDS011;57301;50.328;8.542;2023-06-14T14:49:10;5.88;;;3.17;;
69970;SDS011;57301;50.328;8.542;2023-06-14T14:51:37;4.47;;;3.40;;
69970;SDS011;57301;50.328;8.542;2023-06-14T14:54:04;6.32;;;3.00;;
69970;SDS011;57301;50.328;8.542;2023-06-14T14:56:31;5.80;;;3.13;;
69970;SDS011;57301;50.328;8.542;2023-06-14T14:58:58;12.70;;;8.60;;
69970;SDS011;57301;50.328;8.542;2023-06-14T15:01:24;8.63;;;4.05;;
69970;SDS011;57301;50.328;8.542;2023-06-14T15:03:51;13.57;;;6.05;;
69970;SDS011;57301;50.328;8.542;2023-06-14T15:06:25;11.68;;;7.55;;
69970;SDS011;57301;50.328;8.542;2023-06-14T15:08:51;5.78;;;3.63;;
69970;SDS011;57301;50.328;8.542;2023-06-14T15:11:18;8.23;;;4.03;;